• Join FlightAware (Why Join?)
  • Login
  • US Flag 
06:01AM EDT


 

Airport Tracker/Info


-or-


 

Live Flight TrackerFlight Track Log ✈ QLK371 ✈ 18-Jun-2013 ✈ YHBA / HVB - YBBN / BNE

Flight Track Log - Related Links

Times and Time Zones

All times are in EDT time to prevent confusion due to time zone crossing. See the QLK371 flight status page for this flight to view local times or setup timezone preferences in your user account.

Time Position Orientation Groundspeed Altitude Reporting Facility
EDT Latitude Longitude Course Direction KTS MPH feet Rate Location/Type
04:51PM -25.4307 152.7885 218° Southwest 146 168 6,800  Level Aus ATC (RADAR)
04:52PM -25.4727 152.7516 218° Southwest 172 198 8,400 1,560 Climbing Aus ATC (RADAR)
04:54PM -25.5328 152.7070 214° Southwest 189 217 10,700 1,320 Climbing Aus ATC (RADAR)
04:55PM -25.5910 152.7125 175° South 210 242 11,700 960 Climbing Aus ATC (RADAR)
04:56PM -25.6555 152.7159 177° South 220 253 12,800 600 Climbing Aus ATC (RADAR)
04:57PM -25.7233 152.7172 179° South 225 259 13,000 60 Climbing Aus ATC (RADAR)
04:58PM -25.7877 152.7204 177° South 211 243 13,000  Level Aus ATC (RADAR)
04:59PM -25.8486 152.7231 178° South 203 234 13,000  Level Aus ATC (RADAR)
05:01PM -25.9770 152.7291 178° South 207 238 13,000  Level Aus ATC (RADAR)
05:03PM -26.0487 152.7317 178° South 206 237 13,000  Level Aus ATC (RADAR)
05:03PM -26.0631 152.7328 176° South 207 238 13,000  Level Aus ATC (RADAR)
05:04PM -26.1201 152.7347 178° South 203 234 13,000  Level Aus ATC (RADAR)
05:04PM -26.1528 152.7356 178° South 202 232 13,000  Level Aus ATC (RADAR)
05:05PM -26.1943 152.7378 177° South 198 228 13,000  Level Aus ATC (RADAR)
05:06PM -26.2687 152.7413 178° South 201 231 13,000  Level Aus ATC (RADAR)
05:07PM -26.2828 152.7424 176° South 201 231 13,000  Level Aus ATC (RADAR)
05:07PM -26.3153 152.7438 178° South 200 230 13,000  Level Aus ATC (RADAR)
05:08PM -26.3713 152.7460 178° South 201 231 13,000  Level Aus ATC (RADAR)
05:09PM -26.3852 152.7465 178° South 200 230 13,000  Level Aus ATC (RADAR)
05:09PM -26.4131 152.7475 178° South 201 231 13,000  Level Aus ATC (RADAR)
05:10PM -26.4648 152.7498 178° South 204 235 13,000  Level Aus ATC (RADAR)
05:11PM -26.5510 152.7546 177° South 206 237 13,000  Level Aus ATC (RADAR)
05:12PM -26.5842 152.7554 179° South 204 235 13,000  Level Aus ATC (RADAR)
05:13PM -26.6261 152.7568 178° South 201 231 13,000  Level Aus ATC (RADAR)
05:14PM -26.6782 152.7591 178° South 204 235 13,000  Level Aus ATC (RADAR)
05:14PM -26.7116 152.7602 178° South 204 235 13,000  Level Aus ATC (RADAR)
05:15PM -26.7586 152.7625 177° South 202 232 13,000  Level Aus ATC (RADAR)
05:15PM -26.7720 152.7694 155° Southeast 207 238 13,000  Level Aus ATC (RADAR)
05:17PM -26.7140 152.8089 31° Northeast 203 234 13,000  Level Aus ATC (RADAR)
05:17PM -26.7024 152.8012 329° Northwest 196 226 13,000  Level Aus ATC (RADAR)
05:18PM -26.6754 152.7826 328° Northwest 195 224 13,000  Level Aus ATC (RADAR)
05:19PM -26.6328 152.7522 327° Northwest 197 227 13,000  Level Aus ATC (RADAR)
05:19PM -26.6292 152.7131 276° West 183 211 13,000  Level Aus ATC (RADAR)
05:20PM -26.6849 152.7273 167° South 212 244 13,000 -60 Level Aus ATC (RADAR)
05:22PM -26.7614 152.7706 153° Southeast 222 255 12,900 -360 Descending Aus ATC (RADAR)
05:22PM -26.7769 152.7798 152° Southeast 236 272 12,400 -1,620 Descending Aus ATC (RADAR)
05:23PM -26.8105 152.7990 153° Southeast 263 303 11,700 -1,500 Descending Aus ATC (RADAR)
05:24PM -26.8790 152.8427 150° Southeast 276 318 10,200 -1,440 Descending Aus ATC (RADAR)
05:24PM -26.8956 152.8527 152° Southeast 272 313 9,900 -1,440 Descending Aus ATC (RADAR)
05:24PM -26.9345 152.8760 152° Southeast 267 307 9,000 -1,500 Descending Aus ATC (RADAR)
05:25PM -26.9944 152.9114 152° Southeast 259 298 7,700 -1,380 Descending Aus ATC (RADAR)
05:27PM -27.0998 152.9872 147° Southeast 247 284 5,400 -1,320 Descending Aus ATC (RADAR)
05:27PM -27.1108 153.0025 129° Southeast 246 283 5,100 -1,080 Descending Aus ATC (RADAR)
05:28PM -27.1344 153.0292 135° Southeast 237 273 4,600 -1,020 Descending Aus ATC (RADAR)
05:29PM -27.1821 153.0817 136° Southeast 237 273 3,600 -1,080 Descending Aus ATC (RADAR)
05:29PM -27.1946 153.0944 138° Southeast 236 272 3,300 -840 Descending Aus ATC (RADAR)
05:30PM -27.2170 153.1252 129° Southeast 213 245 2,900 -720 Descending Aus ATC (RADAR)
05:31PM -27.2467 153.1669 129° Southeast 180 207 2,300 -600 Descending Aus ATC (RADAR)
05:32PM -27.3047 153.1744 173° South 138 159 1,500 -540 Descending Aus ATC (RADAR)
05:32PM -27.3127 153.1691 211° Southwest 136 157 1,400 -600 Descending Aus ATC (RADAR)
05:33PM -27.3296 153.1603 205° Southwest 116 133 1,000 -600 Descending Aus ATC (RADAR)
05:34PM -27.3531 153.1474 206° Southwest 98 113 500 -540 Descending Aus ATC (RADAR)
05:34PM -27.3592 153.1436 210° Southwest 98 113 400 -540 Descending Aus ATC (RADAR)
05:35PM -27.3726 153.1359 207° Southwest 97 112 100 -540 Descending Aus ATC (RADAR)